Time;durP1;ratioP1;P1;durP2;ratioP2;P2;SDS_P1;SDS_P2;PMS_P1;PMS_P2;Temp;Humidity;BMP_temperature;BMP_pressure;BME280_temperature;BME280_humidity;BME280_pressure;Samples;Min_cycle;Max_cycle;Signal;HPM_P1;HPM_P2
2020/12/16 00:01:03;;;;;;;2.70;2.47;;;20.40;52.60;;;;;;5004036;28;20224;-62
2020/12/16 00:03:29;;;;;;;3.67;2.30;;;20.40;52.60;;;;;;5010350;28;20250;-62
2020/12/16 00:05:56;;;;;;;2.97;2.67;;;20.40;52.60;;;;;;5003464;28;20239;-60
2020/12/16 00:08:22;;;;;;;3.70;2.50;;;20.30;52.60;;;;;;5008507;28;20231;-60
2020/12/16 00:10:49;;;;;;;5.37;2.60;;;20.30;52.60;;;;;;4997228;28;20848;-62
2020/12/16 00:13:16;;;;;;;7.17;2.57;;;20.20;52.70;;;;;;5001505;28;20223;-61
2020/12/16 00:15:44;;;;;;;3.23;2.63;;;20.20;52.70;;;;;;5001792;28;20225;-62
2020/12/16 00:18:11;;;;;;;2.53;2.30;;;20.20;52.80;;;;;;5009391;28;20671;-62
2020/12/16 00:20:37;;;;;;;3.10;2.50;;;20.10;52.80;;;;;;5008528;28;20592;-62
2020/12/16 00:23:04;;;;;;;2.97;2.10;;;20.20;52.90;;;;;;5002948;28;20687;-62
2020/12/16 00:25:30;;;;;;;3.00;2.50;;;20.20;52.80;;;;;;5009728;28;20227;-60
2020/12/16 00:27:56;;;;;;;2.63;2.43;;;20.10;52.80;;;;;;5001921;28;20259;-60
2020/12/16 00:30:23;;;;;;;2.30;2.10;;;20.10;52.90;;;;;;5023937;28;20235;-61
2020/12/16 00:32:49;;;;;;;2.50;2.30;;;20.10;53.00;;;;;;5001665;28;20252;-61
2020/12/16 00:35:16;;;;;;;2.60;2.40;;;20.00;53.00;;;;;;4990121;28;20571;-65
2020/12/16 00:37:43;;;;;;;2.50;2.30;;;20.00;53.00;;;;;;4982295;28;20684;-61
2020/12/16 00:40:12;;;;;;;2.90;2.40;;;20.00;53.60;;;;;;4989648;28;20224;-60
2020/12/16 00:42:39;;;;;;;2.50;2.30;;;20.00;53.00;;;;;;4983961;28;20242;-61
2020/12/16 00:45:07;;;;;;;3.23;2.30;;;20.00;53.10;;;;;;4982044;28;20278;-60
2020/12/16 00:47:40;;;;;;;2.30;2.10;;;19.90;53.20;;;;;;4981108;28;20253;-60
2020/12/16 00:50:08;;;;;;;2.60;2.30;;;19.90;53.10;;;;;;4989446;28;22123;-61
2020/12/16 00:52:51;;;;;;;2.20;2.00;;;19.90;53.20;;;;;;4983970;28;20728;-61
2020/12/16 00:55:17;;;;;;;2.33;2.13;;;19.90;53.20;;;;;;4990291;28;20223;-61
2020/12/16 00:57:44;;;;;;;2.30;2.10;;;19.80;53.20;;;;;;4983602;28;20239;-60
2020/12/16 01:00:12;;;;;;;2.37;2.00;;;19.80;53.20;;;;;;5006679;28;20227;-62
2020/12/16 01:02:40;;;;;;;2.30;2.10;;;19.80;53.30;;;;;;5003564;28;20777;-62
2020/12/16 01:05:07;;;;;;;2.30;1.83;;;19.80;53.40;;;;;;4994300;28;22216;-62
2020/12/16 01:07:33;;;;;;;2.23;2.03;;;19.80;53.40;;;;;;4987919;28;20411;-62
2020/12/16 01:10:00;;;;;;;2.23;2.00;;;19.70;53.40;;;;;;4985311;28;20235;-61
2020/12/16 01:12:26;;;;;;;2.60;2.03;;;19.70;53.40;;;;;;4990463;28;20239;-64
2020/12/16 01:14:52;;;;;;;2.63;2.03;;;19.70;53.40;;;;;;4983285;28;20232;-62
2020/12/16 01:17:19;;;;;;;2.27;2.07;;;19.70;53.50;;;;;;4987718;28;20227;-61
2020/12/16 01:19:45;;;;;;;3.07;2.40;;;19.70;53.50;;;;;;4996991;28;20227;-61
2020/12/16 01:22:11;;;;;;;1.83;1.70;;;19.70;53.50;;;;;;4985973;28;20220;-61
2020/12/16 01:24:37;;;;;;;2.50;1.80;;;19.70;53.50;;;;;;4986468;28;20543;-61
2020/12/16 01:27:04;;;;;;;1.90;1.70;;;19.60;53.50;;;;;;5008406;28;20220;-62
2020/12/16 01:29:30;;;;;;;2.80;2.00;;;19.60;53.60;;;;;;5004189;28;20233;-62
2020/12/16 01:31:56;;;;;;;1.90;1.80;;;19.60;53.60;;;;;;5002821;28;20223;-61
2020/12/16 01:34:22;;;;;;;2.67;1.67;;;19.60;53.70;;;;;;4987231;28;20216;-61
2020/12/16 01:36:49;;;;;;;1.83;1.43;;;19.60;53.70;;;;;;4988306;28;20244;-61
2020/12/16 01:39:17;;;;;;;2.00;1.80;;;19.50;54.00;;;;;;4985044;28;20225;-61
2020/12/16 01:41:46;;;;;;;2.27;2.00;;;19.50;53.70;;;;;;4988146;28;20619;-61
2020/12/16 01:44:14;;;;;;;1.73;1.63;;;19.50;53.80;;;;;;4994372;28;20235;-61
2020/12/16 01:46:46;;;;;;;1.80;1.70;;;19.50;53.80;;;;;;5008517;28;20742;-61
2020/12/16 01:49:12;;;;;;;2.10;1.90;;;19.50;53.80;;;;;;4998980;28;20212;-61
2020/12/16 01:51:41;;;;;;;1.77;1.60;;;19.50;53.80;;;;;;4986168;28;20715;-62
2020/12/16 01:54:08;;;;;;;2.20;1.70;;;19.40;53.80;;;;;;4987857;28;20347;-61
2020/12/16 01:56:41;;;;;;;1.67;1.53;;;19.40;53.90;;;;;;4984829;28;20224;-62
2020/12/16 01:59:12;;;;;;;1.87;1.53;;;19.40;53.90;;;;;;4990167;28;20722;-61
2020/12/16 02:01:41;;;;;;;1.80;1.70;;;19.40;53.90;;;;;;5003370;28;20230;-62
2020/12/16 02:04:11;;;;;;;1.60;1.50;;;19.40;53.90;;;;;;5006182;28;20596;-61
2020/12/16 02:06:40;;;;;;;1.97;1.77;;;19.40;53.90;;;;;;5002247;28;20700;-61
2020/12/16 02:09:09;;;;;;;2.00;1.80;;;19.40;54.00;;;;;;5007154;28;20489;-61
2020/12/16 02:11:37;;;;;;;1.67;1.57;;;19.30;53.90;;;;;;4985173;28;20232;-62
2020/12/16 02:14:05;;;;;;;1.93;1.73;;;19.30;54.00;;;;;;5001145;28;20628;-62
2020/12/16 02:16:31;;;;;;;1.73;1.50;;;19.30;54.00;;;;;;5003255;28;20235;-62
2020/12/16 02:18:59;;;;;;;1.70;1.60;;;19.30;54.00;;;;;;4990937;28;20224;-61
2020/12/16 02:21:27;;;;;;;1.60;1.50;;;19.30;54.00;;;;;;5002814;28;20655;-61
2020/12/16 02:24:03;;;;;;;1.43;1.33;;;19.30;54.10;;;;;;5003675;28;20238;-62
2020/12/16 02:26:37;;;;;;;1.83;1.50;;;19.30;54.10;;;;;;5000823;28;20223;-62
2020/12/16 02:29:06;;;;;;;2.07;1.70;;;19.20;54.10;;;;;;5008015;28;20234;-61
2020/12/16 02:31:34;;;;;;;1.60;1.50;;;19.20;54.10;;;;;;5003979;28;23023;-61
2020/12/16 02:34:01;;;;;;;1.60;1.50;;;19.20;54.10;;;;;;5004366;28;20622;-61
2020/12/16 02:36:27;;;;;;;1.50;1.40;;;19.20;54.10;;;;;;5003193;28;21636;-61
2020/12/16 02:38:54;;;;;;;1.77;1.67;;;19.20;54.10;;;;;;5006741;28;20587;-61
2020/12/16 02:41:22;;;;;;;1.60;1.50;;;19.20;54.10;;;;;;5007667;28;20219;-62
2020/12/16 02:43:48;;;;;;;1.70;1.60;;;19.20;54.10;;;;;;5004371;28;20227;-62
2020/12/16 02:46:15;;;;;;;1.90;1.80;;;19.20;54.20;;;;;;5006823;28;20227;-61
2020/12/16 02:48:41;;;;;;;1.47;1.37;;;19.20;54.20;;;;;;4998163;28;20215;-61
2020/12/16 02:51:08;;;;;;;1.67;1.50;;;19.10;54.20;;;;;;5007040;28;20238;-62
2020/12/16 02:53:35;;;;;;;1.63;1.53;;;19.20;54.30;;;;;;5000158;28;20290;-61
2020/12/16 02:56:01;;;;;;;1.60;1.50;;;19.10;54.30;;;;;;5007977;28;20227;-62
2020/12/16 02:58:27;;;;;;;2.30;1.37;;;19.10;54.30;;;;;;5001580;28;20235;-62
2020/12/16 03:00:54;;;;;;;1.70;1.60;;;19.10;54.30;;;;;;5007051;28;20229;-62
2020/12/16 03:03:20;;;;;;;1.60;1.50;;;19.10;54.30;;;;;;5001815;28;20300;-61
2020/12/16 03:05:46;;;;;;;1.50;1.30;;;19.10;54.30;;;;;;5006128;28;20250;-60
2020/12/16 03:08:12;;;;;;;1.30;1.20;;;19.00;54.30;;;;;;5001839;28;20223;-60
2020/12/16 03:10:39;;;;;;;1.50;1.40;;;19.10;54.40;;;;;;5005813;28;20231;-60
2020/12/16 03:13:06;;;;;;;1.73;1.47;;;19.00;54.30;;;;;;5005521;28;20243;-61
2020/12/16 03:15:32;;;;;;;3.23;1.43;;;19.10;54.40;;;;;;5011052;28;20348;-61
2020/12/16 03:17:59;;;;;;;1.57;1.47;;;19.00;54.30;;;;;;5010726;28;20223;-62
2020/12/16 03:20:25;;;;;;;1.27;1.17;;;19.00;54.40;;;;;;5005449;28;20236;-62
2020/12/16 03:22:51;;;;;;;2.67;1.50;;;19.00;54.40;;;;;;5012263;28;20238;-60
2020/12/16 03:25:18;;;;;;;1.30;1.20;;;19.00;54.40;;;;;;4993224;28;20246;-61
2020/12/16 03:27:44;;;;;;;1.53;1.43;;;19.00;54.40;;;;;;4995876;28;20230;-62
2020/12/16 03:30:10;;;;;;;1.43;1.33;;;19.00;54.40;;;;;;4998057;28;20220;-61
2020/12/16 03:32:36;;;;;;;1.30;1.20;;;18.90;54.40;;;;;;4994642;28;20231;-61
2020/12/16 03:35:03;;;;;;;1.90;1.30;;;18.90;54.40;;;;;;5007536;28;20228;-60
2020/12/16 03:37:30;;;;;;;1.40;1.30;;;18.90;54.50;;;;;;5009963;28;20303;-60
2020/12/16 03:39:56;;;;;;;1.40;1.30;;;19.00;54.50;;;;;;5005809;28;20246;-60
2020/12/16 03:42:22;;;;;;;1.50;1.40;;;18.90;54.50;;;;;;5009885;28;20228;-60
2020/12/16 03:44:48;;;;;;;1.30;1.07;;;18.90;54.50;;;;;;5003959;28;20801;-63
2020/12/16 03:47:15;;;;;;;1.57;1.40;;;18.90;54.50;;;;;;5010198;28;20228;-60
2020/12/16 03:49:42;;;;;;;1.10;1.00;;;18.90;55.20;;;;;;5002204;28;20216;-60
2020/12/16 03:52:08;;;;;;;1.40;1.30;;;18.90;54.60;;;;;;5009463;28;20703;-61
2020/12/16 03:54:42;;;;;;;1.77;1.17;;;18.90;54.60;;;;;;4989854;28;20228;-60
2020/12/16 03:57:08;;;;;;;1.40;1.20;;;18.90;54.60;;;;;;4992830;28;20223;-60
2020/12/16 03:59:35;;;;;;;1.20;1.10;;;18.90;54.60;;;;;;5008692;28;20215;-60
2020/12/16 04:02:01;;;;;;;1.20;1.00;;;18.90;54.60;;;;;;5002122;28;20223;-62
2020/12/16 04:04:27;;;;;;;0.83;0.83;;;18.80;54.60;;;;;;5017383;28;20224;-62
2020/12/16 04:06:56;;;;;;;1.20;1.10;;;18.80;54.60;;;;;;4984516;28;20229;-61
2020/12/16 04:09:25;;;;;;;1.30;1.20;;;18.80;54.60;;;;;;4990563;28;20224;-61
2020/12/16 04:11:53;;;;;;;1.17;1.07;;;18.80;54.60;;;;;;4983523;28;20216;-59
2020/12/16 04:14:21;;;;;;;3.20;1.30;;;18.90;54.70;;;;;;4983581;28;20220;-57
2020/12/16 04:16:47;;;;;;;1.30;1.20;;;18.80;55.70;;;;;;4980022;28;20231;-57
2020/12/16 04:19:14;;;;;;;1.47;1.37;;;18.80;55.80;;;;;;4987720;28;20220;-59
2020/12/16 04:21:41;;;;;;;1.10;1.00;;;18.70;56.10;;;;;;4989337;28;20287;-59
2020/12/16 04:24:07;;;;;;;1.23;1.00;;;18.70;56.70;;;;;;4987662;28;20213;-58
2020/12/16 04:26:33;;;;;;;1.37;1.17;;;18.80;56.70;;;;;;4995606;28;20240;-59
2020/12/16 04:29:00;;;;;;;2.40;1.00;;;18.80;56.90;;;;;;4988241;28;20660;-59
2020/12/16 04:31:26;;;;;;;1.40;1.20;;;18.80;56.50;;;;;;4990155;28;20223;-58
2020/12/16 04:33:52;;;;;;;1.40;1.13;;;18.80;56.00;;;;;;5008243;28;20224;-57
2020/12/16 04:36:19;;;;;;;1.50;1.20;;;18.90;56.40;;;;;;4999851;28;20683;-58
2020/12/16 04:38:45;;;;;;;1.30;1.20;;;18.90;55.80;;;;;;4981976;28;20224;-58
2020/12/16 04:41:11;;;;;;;0.80;0.80;;;18.90;56.30;;;;;;4985973;28;20220;-56
2020/12/16 04:43:42;;;;;;;0.90;0.83;;;19.00;55.60;;;;;;4988119;28;20234;-58
2020/12/16 04:46:13;;;;;;;1.17;1.10;;;19.00;55.70;;;;;;5003318;28;20255;-57
2020/12/16 04:48:46;;;;;;;1.23;1.13;;;19.10;55.40;;;;;;4980785;28;20775;-57
2020/12/16 04:51:16;;;;;;;0.90;0.90;;;19.10;55.50;;;;;;4987220;28;20700;-57
2020/12/16 04:53:44;;;;;;;1.20;1.10;;;19.10;55.30;;;;;;4977896;28;20720;-58
2020/12/16 04:56:15;;;;;;;1.10;1.00;;;19.10;55.20;;;;;;4987973;28;20719;-58
2020/12/16 04:58:41;;;;;;;1.57;0.93;;;19.20;55.70;;;;;;4980338;28;20225;-58
2020/12/16 05:01:09;;;;;;;1.40;1.30;;;19.10;55.30;;;;;;4987422;28;20223;-60
2020/12/16 05:03:35;;;;;;;1.10;1.00;;;19.20;55.40;;;;;;4980400;28;20233;-60
2020/12/16 05:06:02;;;;;;;1.30;1.20;;;19.20;54.90;;;;;;4986550;28;20239;-61
2020/12/16 05:08:29;;;;;;;1.10;1.00;;;19.20;54.60;;;;;;4974479;28;20229;-60
2020/12/16 05:10:55;;;;;;;1.30;1.20;;;19.20;54.50;;;;;;4984227;28;20498;-60
2020/12/16 05:13:26;;;;;;;1.10;1.00;;;19.20;54.40;;;;;;4978968;28;20232;-60
2020/12/16 05:15:53;;;;;;;1.33;1.13;;;19.20;54.40;;;;;;5002278;28;20231;-60
2020/12/16 05:18:27;;;;;;;1.30;1.20;;;19.10;55.00;;;;;;4981511;28;20235;-61
2020/12/16 05:20:56;;;;;;;0.90;0.90;;;19.10;54.40;;;;;;5002481;28;20585;-61
2020/12/16 05:23:27;;;;;;;1.10;1.00;;;19.10;54.40;;;;;;4998775;28;21742;-61
2020/12/16 05:25:58;;;;;;;1.33;1.17;;;19.00;54.50;;;;;;5007124;28;20243;-61
2020/12/16 05:28:29;;;;;;;1.30;1.20;;;19.00;54.50;;;;;;5005814;28;20696;-62
2020/12/16 05:30:57;;;;;;;1.40;1.30;;;19.00;54.40;;;;;;4998937;28;20219;-61
2020/12/16 05:33:25;;;;;;;1.40;1.30;;;19.00;54.50;;;;;;5006289;28;20235;-61
2020/12/16 05:35:54;;;;;;;1.30;1.20;;;18.90;54.80;;;;;;4998713;28;20230;-61
2020/12/16 05:38:22;;;;;;;1.37;1.27;;;18.90;54.50;;;;;;5004670;28;20657;-61
2020/12/16 05:40:56;;;;;;;1.27;1.17;;;18.90;54.50;;;;;;4999619;28;20589;-60
2020/12/16 05:43:28;;;;;;;1.50;1.40;;;18.80;54.50;;;;;;5005710;28;20227;-62
2020/12/16 05:45:56;;;;;;;1.50;1.40;;;18.80;54.60;;;;;;4999552;28;20285;-60
2020/12/16 05:48:28;;;;;;;0.77;0.77;;;18.80;54.60;;;;;;5005163;28;20219;-61
2020/12/16 05:50:58;;;;;;;1.40;1.30;;;18.80;54.60;;;;;;4998327;28;20242;-60
2020/12/16 05:53:26;;;;;;;1.13;1.03;;;18.80;54.60;;;;;;5005160;28;20235;-60
2020/12/16 05:55:59;;;;;;;1.63;1.30;;;18.80;54.70;;;;;;4998577;28;20608;-59
2020/12/16 05:58:28;;;;;;;1.77;1.50;;;18.70;54.70;;;;;;5005087;28;20235;-61
2020/12/16 06:01:01;;;;;;;1.30;1.20;;;18.70;54.60;;;;;;4998222;28;20230;-61
2020/12/16 06:03:34;;;;;;;1.20;1.10;;;18.70;54.70;;;;;;5004271;28;20289;-62
2020/12/16 06:06:08;;;;;;;1.40;1.30;;;18.70;54.70;;;;;;4997962;28;20250;-61
2020/12/16 06:08:37;;;;;;;2.10;1.00;;;18.70;54.70;;;;;;5001706;28;20321;-61
2020/12/16 06:11:04;;;;;;;1.43;1.30;;;18.60;54.70;;;;;;4996853;28;20230;-61
2020/12/16 06:13:32;;;;;;;1.40;1.30;;;18.60;54.70;;;;;;5005403;28;20232;-61
2020/12/16 06:15:59;;;;;;;1.20;1.10;;;18.60;54.80;;;;;;4997144;28;20740;-61
2020/12/16 06:18:29;;;;;;;1.20;1.10;;;18.60;54.80;;;;;;5002183;28;20230;-61
2020/12/16 06:20:56;;;;;;;1.60;1.20;;;18.60;54.70;;;;;;4996612;28;20254;-61
2020/12/16 06:23:25;;;;;;;1.60;1.50;;;18.60;54.70;;;;;;5006688;28;20232;-61
2020/12/16 06:26:15;;;;;;;1.47;1.37;;;18.60;54.70;;;;;;4996310;28;20281;-61
2020/12/16 06:28:43;;;;;;;1.67;1.50;;;18.60;54.70;;;;;;5006451;28;20226;-61
2020/12/16 06:31:29;;;;;;;9.07;3.20;;;18.50;55.20;;;;;;5001608;28;20575;-61
2020/12/16 06:34:02;;;;;;;9.73;3.53;;;18.50;56.20;;;;;;5002692;28;20282;-60
2020/12/16 06:36:40;;;;;;;14.67;4.40;;;18.50;56.70;;;;;;4997792;28;20305;-61
2020/12/16 06:39:23;;;;;;;9.10;3.33;;;18.50;56.70;;;;;;5004560;28;20231;-60
2020/12/16 06:41:57;;;;;;;15.10;4.30;;;18.60;56.40;;;;;;4997697;28;20239;-60
2020/12/16 06:44:25;;;;;;;14.17;4.67;;;18.50;56.50;;;;;;5005747;28;20585;-60
2020/12/16 06:46:53;;;;;;;17.63;4.87;;;18.50;56.50;;;;;;4997907;28;20246;-61
2020/12/16 06:49:22;;;;;;;15.97;4.37;;;18.50;56.40;;;;;;5001897;28;20887;-60
2020/12/16 06:51:56;;;;;;;14.27;4.50;;;18.50;56.30;;;;;;5006006;28;20221;-61
2020/12/16 06:54:34;;;;;;;11.30;4.23;;;18.40;56.20;;;;;;4994582;28;21660;-61
2020/12/16 06:57:12;;;;;;;11.07;4.67;;;18.40;56.10;;;;;;5003656;28;20596;-62
2020/12/16 06:59:51;;;;;;;7.93;3.77;;;18.40;56.00;;;;;;5001072;28;20250;-61
2020/12/16 07:02:26;;;;;;;10.93;3.80;;;18.40;55.90;;;;;;5003857;28;20223;-62
2020/12/16 07:04:53;;;;;;;7.37;3.30;;;18.40;55.90;;;;;;4999699;28;20226;-60
2020/12/16 07:07:39;;;;;;;7.73;3.40;;;18.40;55.70;;;;;;5003517;28;20223;-60
2020/12/16 07:10:34;;;;;;;9.17;3.87;;;18.40;55.70;;;;;;4994289;28;20232;-60
2020/12/16 07:13:18;;;;;;;8.47;3.60;;;18.40;55.70;;;;;;4996323;28;20350;-60
2020/12/16 07:15:52;;;;;;;8.03;3.13;;;18.40;55.60;;;;;;5003520;28;20215;-60
2020/12/16 07:18:32;;;;;;;6.20;3.10;;;18.30;55.60;;;;;;4996330;28;20234;-60
2020/12/16 07:21:23;;;;;;;5.83;3.30;;;18.30;55.70;;;;;;5004231;28;20222;-60
2020/12/16 07:23:52;;;;;;;6.07;2.87;;;18.30;55.70;;;;;;5012166;28;21812;-58
2020/12/16 07:26:28;;;;;;;6.63;3.43;;;18.30;55.90;;;;;;5011430;28;20598;-58
2020/12/16 07:28:58;;;;;;;9.87;2.90;;;18.30;55.90;;;;;;4998022;28;20676;-58
2020/12/16 07:31:26;;;;;;;5.90;2.80;;;18.30;55.80;;;;;;5002860;28;20231;-57
2020/12/16 07:33:53;;;;;;;7.67;3.20;;;18.30;55.80;;;;;;4995813;28;20726;-59
2020/12/16 07:36:21;;;;;;;7.10;2.90;;;18.30;55.80;;;;;;4997804;28;20230;-57
2020/12/16 07:38:49;;;;;;;6.30;2.93;;;18.30;55.80;;;;;;5003728;28;20293;-59
2020/12/16 07:41:25;;;;;;;4.77;2.70;;;18.20;55.70;;;;;;4986895;28;21541;-62
2020/12/16 07:43:52;;;;;;;4.00;2.23;;;18.20;55.90;;;;;;4996424;28;20350;-60
2020/12/16 07:46:23;;;;;;;3.40;2.40;;;18.30;56.10;;;;;;4995401;28;20233;-65
2020/12/16 07:48:50;;;;;;;4.93;2.27;;;18.50;55.90;;;;;;5000975;28;20309;-67
2020/12/16 07:51:20;;;;;;;8.50;2.57;;;18.60;56.00;;;;;;5003770;28;20250;-66
2020/12/16 07:53:51;;;;;;;4.67;2.70;;;18.60;56.00;;;;;;5007384;28;20235;-65
2020/12/16 07:56:22;;;;;;;7.17;2.67;;;18.60;55.80;;;;;;5003241;28;20422;-65
2020/12/16 07:58:48;;;;;;;3.17;2.10;;;18.60;55.80;;;;;;5007430;28;20231;-66
2020/12/16 08:01:17;;;;;;;3.03;2.00;;;18.50;55.50;;;;;;5001195;28;20235;-59
2020/12/16 08:03:44;;;;;;;4.80;2.37;;;18.50;55.40;;;;;;5005951;28;20238;-60
2020/12/16 08:06:11;;;;;;;2.83;2.10;;;18.50;55.30;;;;;;5007131;28;20236;-65
2020/12/16 08:08:46;;;;;;;2.37;1.80;;;18.50;55.10;;;;;;5007291;28;20834;-65
2020/12/16 08:11:17;;;;;;;3.53;2.20;;;18.50;54.90;;;;;;5006789;28;20820;-66
2020/12/16 08:13:43;;;;;;;4.53;2.30;;;18.60;54.80;;;;;;5007060;28;21019;-64
2020/12/16 08:16:10;;;;;;;4.03;2.37;;;18.60;54.70;;;;;;5000515;28;20219;-67
2020/12/16 08:18:41;;;;;;;5.43;2.60;;;18.60;54.60;;;;;;5009842;28;20221;-66
2020/12/16 08:21:24;;;;;;;19.63;3.50;;;18.60;54.50;;;;;;5000157;28;20231;-63
2020/12/16 08:23:52;;;;;;;12.00;4.73;;;18.70;56.00;;;;;;5004806;28;20715;-64
2020/12/16 08:26:20;;;;;;;14.50;4.60;;;18.80;56.60;;;;;;4998446;28;20219;-64
2020/12/16 08:28:47;;;;;;;15.23;5.63;;;18.90;56.80;;;;;;5004833;28;21531;-64
2020/12/16 08:31:30;;;;;;;15.40;5.27;;;19.00;57.10;;;;;;4984192;28;20598;-62
2020/12/16 08:33:57;;;;;;;11.23;5.43;;;19.10;56.90;;;;;;5005695;28;20282;-60
2020/12/16 08:36:34;;;;;;;14.60;5.70;;;19.10;57.00;;;;;;4996940;28;20224;-67
2020/12/16 08:39:05;;;;;;;13.67;5.57;;;19.20;57.10;;;;;;4984732;28;20220;-66
2020/12/16 08:41:34;;;;;;;15.40;6.00;;;19.30;57.20;;;;;;4986883;28;20724;-59
2020/12/16 08:44:04;;;;;;;15.80;6.60;;;19.30;57.10;;;;;;4987838;28;20224;-60
2020/12/16 08:46:38;;;;;;;14.77;5.33;;;19.30;56.90;;;;;;4989840;28;20240;-59
2020/12/16 08:49:05;;;;;;;14.53;5.97;;;19.40;56.90;;;;;;4980686;28;20227;-61
2020/12/16 08:51:39;;;;;;;18.07;5.73;;;19.50;56.70;;;;;;4988248;28;20717;-58
2020/12/16 08:54:11;;;;;;;14.80;5.97;;;19.50;56.70;;;;;;4961460;28;20643;-58
2020/12/16 08:57:05;;;;;;;10.77;5.10;;;19.50;56.60;;;;;;4969361;28;20233;-60
2020/12/16 08:59:33;;;;;;;13.27;5.07;;;19.50;56.60;;;;;;4964272;28;20306;-57
2020/12/16 09:02:02;;;;;;;9.10;4.60;;;19.50;56.60;;;;;;4958966;28;20240;-60
2020/12/16 09:04:29;;;;;;;12.53;4.63;;;19.60;56.40;;;;;;4960257;28;20233;-60
2020/12/16 09:07:10;;;;;;;12.53;4.77;;;20.10;54.90;;;;;;4957804;28;20229;-60
2020/12/16 09:09:51;;;;;;;9.53;4.40;;;20.80;53.40;;;;;;4958744;28;20281;-59
2020/12/16 09:12:21;;;;;;;10.70;4.10;;;21.30;52.10;;;;;;4968231;28;20693;-61
2020/12/16 09:14:55;;;;;;;10.23;4.20;;;21.70;51.10;;;;;;4965533;28;20904;-59
2020/12/16 09:17:23;;;;;;;8.87;3.90;;;22.00;50.40;;;;;;4966035;28;20233;-66
2020/12/16 09:19:49;;;;;;;7.23;3.63;;;22.30;50.00;;;;;;4959938;28;20681;-65
2020/12/16 09:22:25;;;;;;;8.10;3.93;;;22.50;49.70;;;;;;4965724;28;20281;-66
2020/12/16 09:24:55;;;;;;;6.67;3.40;;;22.70;49.20;;;;;;4959659;28;20232;-66
2020/12/16 09:27:22;;;;;;;6.90;3.73;;;22.90;48.80;;;;;;4965106;28;20580;-65
2020/12/16 09:29:49;;;;;;;5.53;3.50;;;23.00;48.60;;;;;;4961696;28;20233;-62
2020/12/16 09:32:23;;;;;;;7.07;3.63;;;23.10;48.30;;;;;;4966366;28;20856;-63
2020/12/16 09:34:51;;;;;;;6.30;3.30;;;23.20;48.10;;;;;;4961679;28;20239;-64
2020/12/16 09:38:13;;;;;;;6.23;3.17;;;23.40;47.70;;;;;;4970440;28;20854;-60
2020/12/16 09:40:40;;;;;;;4.40;2.97;;;23.50;47.60;;;;;;4963347;28;20427;-60
2020/12/16 09:43:09;;;;;;;6.87;3.40;;;23.60;47.70;;;;;;4970187;28;20232;-58
2020/12/16 09:45:38;;;;;;;3.93;2.60;;;23.80;47.40;;;;;;4961232;28;20235;-60
2020/12/16 09:48:06;;;;;;;5.53;3.13;;;23.90;47.30;;;;;;4965994;28;20225;-59
2020/12/16 09:50:34;;;;;;;3.43;2.43;;;24.00;46.90;;;;;;4961065;28;20225;-60
2020/12/16 09:53:06;;;;;;;4.73;2.80;;;24.10;46.60;;;;;;4973618;28;20254;-61
2020/12/16 09:55:39;;;;;;;5.77;3.20;;;24.10;46.60;;;;;;4980390;28;20475;-60
2020/12/16 09:58:12;;;;;;;4.40;2.70;;;24.20;46.60;;;;;;4984782;28;20848;-59
2020/12/16 10:00:43;;;;;;;3.93;2.40;;;24.40;47.30;;;;;;4998769;28;20220;-57
2020/12/16 10:03:13;;;;;;;4.87;2.17;;;24.60;46.20;;;;;;5002675;28;20220;-61
2020/12/16 10:05:41;;;;;;;4.20;2.27;;;24.70;46.40;;;;;;4978574;28;20224;-61
2020/12/16 10:08:14;;;;;;;4.53;2.10;;;24.80;46.00;;;;;;4994498;28;20873;-61
2020/12/16 10:10:40;;;;;;;3.17;1.90;;;24.90;46.00;;;;;;4976604;28;20270;-64
2020/12/16 10:13:07;;;;;;;5.97;2.30;;;25.10;45.80;;;;;;4985247;28;20229;-62
2020/12/16 10:15:33;;;;;;;3.43;1.90;;;25.30;45.60;;;;;;4978950;28;20224;-59
2020/12/16 10:17:59;;;;;;;4.33;2.20;;;25.40;45.30;;;;;;4987088;28;21009;-60
2020/12/16 10:20:26;;;;;;;4.90;2.10;;;25.40;45.60;;;;;;4987036;28;20224;-60
2020/12/16 10:22:52;;;;;;;2.43;1.90;;;25.50;45.20;;;;;;4988275;28;20223;-59
2020/12/16 10:25:19;;;;;;;2.83;2.10;;;25.50;45.30;;;;;;4999064;28;20248;-64
2020/12/16 10:27:45;;;;;;;2.87;1.77;;;25.70;45.00;;;;;;4996334;28;20227;-62
2020/12/16 10:30:11;;;;;;;2.90;1.70;;;25.90;44.70;;;;;;4988333;28;20585;-63
2020/12/16 10:32:39;;;;;;;3.97;1.70;;;26.00;44.70;;;;;;4977758;28;20232;-61
2020/12/16 10:35:06;;;;;;;3.10;1.67;;;26.00;44.70;;;;;;5001193;28;20339;-63
2020/12/16 10:37:36;;;;;;;2.60;1.87;;;26.10;44.30;;;;;;5000014;28;20223;-63
2020/12/16 10:40:04;;;;;;;2.90;1.30;;;26.20;44.20;;;;;;5004926;28;20224;-63
2020/12/16 10:42:31;;;;;;;1.70;1.57;;;26.40;44.50;;;;;;5000797;28;20255;-62
2020/12/16 10:44:57;;;;;;;1.87;1.57;;;26.50;44.00;;;;;;5007126;28;20223;-62
2020/12/16 10:47:23;;;;;;;1.70;1.40;;;26.40;44.00;;;;;;4999422;28;20236;-62
2020/12/16 10:49:49;;;;;;;2.43;1.40;;;26.60;44.00;;;;;;4995602;28;20235;-63
2020/12/16 10:52:16;;;;;;;2.90;1.27;;;26.60;44.30;;;;;;4980996;28;20804;-63
2020/12/16 10:54:42;;;;;;;2.50;1.47;;;26.70;44.00;;;;;;4987356;28;20228;-63
2020/12/16 10:57:09;;;;;;;2.93;1.77;;;26.80;44.10;;;;;;4981893;28;20229;-60
2020/12/16 10:59:35;;;;;;;1.50;1.30;;;26.80;43.90;;;;;;4992616;28;20258;-61
2020/12/16 11:02:10;;;;;;;1.87;1.40;;;26.90;43.60;;;;;;5002585;28;20640;-61
2020/12/16 11:04:36;;;;;;;1.63;1.53;;;27.00;43.60;;;;;;4996107;28;20234;-60
2020/12/16 11:07:10;;;;;;;1.63;1.20;;;27.10;43.60;;;;;;5004042;28;20231;-60
2020/12/16 11:09:37;;;;;;;2.37;1.73;;;27.10;43.30;;;;;;5002280;28;20700;-61
2020/12/16 11:12:04;;;;;;;1.80;1.53;;;26.80;43.10;;;;;;5005129;28;20680;-59
2020/12/16 11:14:30;;;;;;;1.37;1.07;;;26.20;44.10;;;;;;4997340;28;20219;-60
2020/12/16 11:16:56;;;;;;;2.60;1.30;;;25.80;45.10;;;;;;5011696;28;20218;-59
2020/12/16 11:19:23;;;;;;;3.30;1.30;;;25.50;45.60;;;;;;5001041;28;20293;-63
2020/12/16 11:21:51;;;;;;;1.43;1.17;;;25.20;45.80;;;;;;5007654;28;20233;-61
2020/12/16 11:24:20;;;;;;;2.00;1.40;;;25.00;46.10;;;;;;4997769;28;20220;-61
2020/12/16 11:26:49;;;;;;;1.40;1.30;;;24.90;46.50;;;;;;5008866;28;20235;-60
2020/12/16 11:29:17;;;;;;;1.20;1.10;;;24.70;46.60;;;;;;4999173;28;20228;-59
2020/12/16 11:31:46;;;;;;;1.87;1.33;;;24.60;46.70;;;;;;5007386;28;20230;-59
2020/12/16 11:34:14;;;;;;;1.10;1.00;;;24.50;46.80;;;;;;5002956;28;21337;-59
2020/12/16 11:36:42;;;;;;;2.00;1.17;;;24.40;46.90;;;;;;5011948;28;20234;-61
2020/12/16 11:39:10;;;;;;;1.80;1.40;;;24.30;47.00;;;;;;5004612;28;20573;-62
2020/12/16 11:41:40;;;;;;;1.60;1.37;;;24.20;47.10;;;;;;5013008;28;20231;-62
2020/12/16 11:44:06;;;;;;;1.60;1.50;;;24.10;47.20;;;;;;5005058;28;20246;-66
2020/12/16 11:46:32;;;;;;;1.60;1.50;;;24.00;47.30;;;;;;5000817;28;20243;-62
2020/12/16 11:49:08;;;;;;;1.50;1.30;;;23.90;48.80;;;;;;5008726;28;20253;-65
2020/12/16 11:51:36;;;;;;;2.10;1.70;;;23.90;48.60;;;;;;5002475;28;20231;-64
2020/12/16 11:54:03;;;;;;;1.90;1.47;;;23.90;48.90;;;;;;5010335;28;20922;-62
2020/12/16 11:56:33;;;;;;;1.60;1.33;;;23.80;48.80;;;;;;5006293;28;20725;-61
2020/12/16 11:59:01;;;;;;;1.60;1.37;;;23.80;48.80;;;;;;5007327;28;20746;-61
2020/12/16 12:01:27;;;;;;;1.50;1.30;;;23.80;48.90;;;;;;5004345;28;20231;-60
2020/12/16 12:03:53;;;;;;;1.73;1.40;;;23.80;49.00;;;;;;5008487;28;20230;-61
2020/12/16 12:06:20;;;;;;;2.13;1.43;;;23.80;49.00;;;;;;5006976;28;20223;-62
2020/12/16 12:08:46;;;;;;;1.67;1.30;;;23.80;48.90;;;;;;5009074;28;20238;-63
2020/12/16 12:11:14;;;;;;;2.63;1.33;;;23.80;49.30;;;;;;5005604;28;20225;-62
2020/12/16 12:13:42;;;;;;;3.00;1.37;;;23.80;49.40;;;;;;5008758;28;20224;-66
2020/12/16 12:16:14;;;;;;;1.97;1.33;;;23.80;49.30;;;;;;5007933;28;20223;-61
2020/12/16 12:18:43;;;;;;;1.70;1.30;;;23.70;49.00;;;;;;5005595;28;20614;-64
2020/12/16 12:21:11;;;;;;;1.97;1.60;;;23.80;49.30;;;;;;5000344;28;20230;-62
2020/12/16 12:23:37;;;;;;;1.57;1.10;;;23.70;49.50;;;;;;5008329;28;20224;-63
2020/12/16 12:26:09;;;;;;;1.50;1.40;;;23.70;49.60;;;;;;4997129;28;20231;-65
2020/12/16 12:28:36;;;;;;;1.23;1.03;;;23.70;49.50;;;;;;5004735;28;20232;-64
2020/12/16 12:31:02;;;;;;;1.77;1.20;;;23.70;49.50;;;;;;5004468;28;20592;-63
2020/12/16 12:33:29;;;;;;;2.77;1.30;;;23.70;49.90;;;;;;4998234;28;20228;-65
2020/12/16 12:35:57;;;;;;;1.40;1.30;;;23.70;49.70;;;;;;5005759;28;20655;-61
2020/12/16 12:38:23;;;;;;;4.50;1.30;;;23.60;49.60;;;;;;5000759;28;20234;-64
2020/12/16 12:40:50;;;;;;;3.13;1.23;;;23.60;49.70;;;;;;5006602;28;20244;-58
2020/12/16 12:43:16;;;;;;;1.70;1.03;;;23.60;49.60;;;;;;5000843;28;20219;-58
2020/12/16 12:45:48;;;;;;;2.63;1.70;;;23.60;49.50;;;;;;5006370;28;20207;-62
2020/12/16 12:48:14;;;;;;;4.27;1.47;;;23.50;50.00;;;;;;5000615;28;20231;-62
2020/12/16 12:50:41;;;;;;;1.40;1.23;;;23.50;50.90;;;;;;4988700;28;20891;-60
2020/12/16 12:53:08;;;;;;;1.80;1.40;;;23.50;50.50;;;;;;4980794;28;20223;-61
2020/12/16 12:55:35;;;;;;;2.20;1.30;;;23.50;51.00;;;;;;4984859;28;20221;-59